createdAt,value
2017-06-01T00:00:59.300Z,7.46
2017-06-01T00:03:28.072Z,6.38
2017-06-01T00:05:56.868Z,8.38
2017-06-01T00:08:25.648Z,7.44
2017-06-01T00:10:54.424Z,7.30
2017-06-01T00:13:23.252Z,6.78
2017-06-01T00:15:52.016Z,7.62
2017-06-01T00:18:20.784Z,8.60
2017-06-01T00:20:50.507Z,8.32
2017-06-01T00:23:20.287Z,7.82
2017-06-01T00:25:50.044Z,7.48
2017-06-01T00:28:19.808Z,7.30
2017-06-01T00:30:48.588Z,6.62
2017-06-01T00:33:17.392Z,7.68
2017-06-01T00:35:46.163Z,8.08
2017-06-01T00:38:14.940Z,8.84
2017-06-01T00:40:43.724Z,9.08
2017-06-01T00:43:12.496Z,7.82
2017-06-01T00:45:41.271Z,8.20
2017-06-01T00:48:10.087Z,8.18
2017-06-01T00:50:38.863Z,8.18
2017-06-01T00:53:07.635Z,8.70
2017-06-01T00:55:36.423Z,8.90
2017-06-01T00:58:05.207Z,7.62
2017-06-01T01:00:33.987Z,7.90
2017-06-01T01:03:02.787Z,7.70
2017-06-01T01:05:31.575Z,9.15
2017-06-01T01:08:00.375Z,7.65
2017-06-01T01:10:29.167Z,8.62
2017-06-01T01:12:57.951Z,7.47
2017-06-01T01:15:27.695Z,7.28
2017-06-01T01:17:56.547Z,7.92
2017-06-01T01:20:25.347Z,8.05
2017-06-01T01:22:54.127Z,8.30
2017-06-01T01:25:24.923Z,8.15
2017-06-01T01:27:53.695Z,9.12
2017-06-01T01:30:22.471Z,7.83
2017-06-01T01:32:51.270Z,7.58
2017-06-01T01:35:20.043Z,7.90
2017-06-01T01:37:48.843Z,6.85
2017-06-01T01:40:17.619Z,7.87
2017-06-01T01:42:46.407Z,7.92
2017-06-01T01:45:15.187Z,7.85
2017-06-01T01:47:44.006Z,6.30
2017-06-01T01:50:12.787Z,6.28
2017-06-01T01:52:45.587Z,6.67
2017-06-01T01:55:14.362Z,6.88
2017-06-01T01:57:43.134Z,5.98
2017-06-01T02:00:11.931Z,5.45
2017-06-01T02:02:40.719Z,5.55
2017-06-01T02:05:09.495Z,7.25
2017-06-01T02:07:38.303Z,7.48
2017-06-01T02:10:07.075Z,7.08
2017-06-01T02:12:35.850Z,7.80
2017-06-01T02:15:05.563Z,7.28
2017-06-01T02:17:34.351Z,6.97
2017-06-01T02:20:03.201Z,7.47
2017-06-01T02:22:31.146Z,6.43
2017-06-01T02:24:59.922Z,6.17
2017-06-01T02:27:30.626Z,5.95
2017-06-01T02:29:59.454Z,5.02
2017-06-01T02:32:29.226Z,5.74
2017-06-01T02:34:58.009Z,6.50
2017-06-01T02:37:27.746Z,6.48
2017-06-01T02:39:56.523Z,6.90
2017-06-01T02:42:25.310Z,7.37
2017-06-01T02:44:54.106Z,6.35
2017-06-01T02:47:23.802Z,7.28
2017-06-01T02:49:52.578Z,6.90
2017-06-01T02:52:22.334Z,6.42
2017-06-01T02:54:51.121Z,6.40
2017-06-01T02:57:19.894Z,6.95
2017-06-01T02:59:48.679Z,5.65
2017-06-01T03:02:17.498Z,6.05
2017-06-01T03:04:46.386Z,6.45
2017-06-01T03:07:15.170Z,6.28
2017-06-01T03:09:43.938Z,6.70
2017-06-01T03:12:13.718Z,7.67
2017-06-01T03:14:42.553Z,7.03
2017-06-01T03:17:12.325Z,6.82
2017-06-01T03:19:41.157Z,6.75
2017-06-01T03:22:09.933Z,6.92
2017-06-01T03:24:38.749Z,7.80
2017-06-01T03:27:07.625Z,7.10
2017-06-01T03:29:36.516Z,7.97
2017-06-01T03:32:05.290Z,7.70
2017-06-01T03:34:34.081Z,8.28
2017-06-01T03:37:03.026Z,7.73
2017-06-01T03:39:31.813Z,9.08
2017-06-01T03:42:00.593Z,7.72
2017-06-01T03:44:29.421Z,7.82
2017-06-01T03:46:58.207Z,7.93
2017-06-01T03:49:26.973Z,8.02
2017-06-01T03:51:55.777Z,8.12
2017-06-01T03:54:24.573Z,8.47
2017-06-01T03:56:53.393Z,8.43
2017-06-01T03:59:22.197Z,6.73
2017-06-01T04:01:50.970Z,7.93
2017-06-01T04:04:19.741Z,8.15
2017-06-01T04:06:48.645Z,8.15
2017-06-01T04:09:19.909Z,7.05
2017-06-01T04:11:50.014Z,7.40
2017-06-01T04:14:19.693Z,7.87
2017-06-01T04:16:48.913Z,7.38
2017-06-01T04:19:17.817Z,7.50
2017-06-01T04:21:46.685Z,8.92
2017-06-01T04:24:15.472Z,7.83
2017-06-01T04:26:44.369Z,8.05
2017-06-01T04:29:13.257Z,6.37
2017-06-01T04:31:42.029Z,7.14
2017-06-01T04:34:10.829Z,6.42
2017-06-01T04:36:39.601Z,7.07
2017-06-01T04:39:08.384Z,8.03
2017-06-01T04:41:37.176Z,9.42
2017-06-01T04:44:05.956Z,8.48
2017-06-01T04:46:34.736Z,8.40
2017-06-01T04:49:03.556Z,8.17
2017-06-01T04:51:32.441Z,8.82
2017-06-01T04:54:01.240Z,11.14
2017-06-01T04:56:30.056Z,11.35
2017-06-01T04:58:59.308Z,10.54
2017-06-01T05:01:28.092Z,11.82
2017-06-01T05:03:57.368Z,11.83
2017-06-01T05:06:26.149Z,12.28
2017-06-01T05:08:54.932Z,12.42
2017-06-01T05:11:23.877Z,11.60
2017-06-01T05:13:52.668Z,10.88
2017-06-01T05:16:21.456Z,13.56
2017-06-01T05:18:50.352Z,11.28
2017-06-01T05:21:19.232Z,11.08
2017-06-01T05:23:48.017Z,11.60
2017-06-01T05:26:16.820Z,10.36
2017-06-01T05:28:45.712Z,8.90
2017-06-01T05:31:14.624Z,7.92
2017-06-01T05:33:43.404Z,8.38
2017-06-01T05:36:12.264Z,7.22
2017-06-01T05:38:41.036Z,7.12
2017-06-01T05:41:09.832Z,5.30
2017-06-01T05:43:38.635Z,5.92
2017-06-01T05:46:07.495Z,5.60
2017-06-01T05:48:36.300Z,5.48
2017-06-01T05:51:05.080Z,5.84
2017-06-01T05:53:33.851Z,5.66
2017-06-01T05:56:02.628Z,4.98
2017-06-01T05:58:31.472Z,5.30
2017-06-01T06:01:00.355Z,5.36
2017-06-01T06:03:29.156Z,4.32
2017-06-01T06:05:58.029Z,5.10
2017-06-01T06:08:26.787Z,5.02
2017-06-01T06:10:55.592Z,4.68
2017-06-01T06:13:24.379Z,4.50
2017-06-01T06:15:54.077Z,4.98
2017-06-01T06:18:22.879Z,4.34
2017-06-01T06:20:51.647Z,5.06
2017-06-01T06:23:20.456Z,4.48
2017-06-01T06:25:49.340Z,4.38
2017-06-01T06:28:18.127Z,4.08
2017-06-01T06:30:47.012Z,3.60
2017-06-01T06:33:15.804Z,4.06
2017-06-01T06:35:44.580Z,3.80
2017-06-01T06:38:13.347Z,3.74
2017-06-01T06:40:42.135Z,4.28
2017-06-01T06:43:10.899Z,3.44
2017-06-01T06:45:40.224Z,4.68
2017-06-01T06:48:09.039Z,3.72
2017-06-01T06:50:37.795Z,3.98
2017-06-01T06:53:06.559Z,4.06
2017-06-01T06:55:35.403Z,3.56
2017-06-01T06:58:04.179Z,5.66
2017-06-01T07:00:32.943Z,3.84
2017-06-01T07:03:01.720Z,3.78
2017-06-01T07:05:30.491Z,3.46
2017-06-01T07:07:59.251Z,4.08
2017-06-01T07:10:28.059Z,3.86
2017-06-01T07:12:56.814Z,3.96
2017-06-01T07:15:25.590Z,3.68
2017-06-01T07:17:54.379Z,3.52
2017-06-01T07:20:23.175Z,4.22
2017-06-01T07:22:51.939Z,4.64
2017-06-01T07:25:20.731Z,3.84
2017-06-01T07:27:49.495Z,3.48
2017-06-01T07:30:18.255Z,4.04
2017-06-01T07:32:47.100Z,3.64
2017-06-01T07:35:15.805Z,3.10
2017-06-01T07:37:44.562Z,3.86
2017-06-01T07:40:13.331Z,3.80
2017-06-01T07:42:42.091Z,4.32
2017-06-01T07:45:10.851Z,3.68
2017-06-01T07:47:39.731Z,3.40
2017-06-01T07:50:08.462Z,3.58
2017-06-01T07:52:37.224Z,2.66
2017-06-01T07:55:05.991Z,3.20
2017-06-01T07:57:34.766Z,2.70
2017-06-01T08:00:03.538Z,2.68
2017-06-01T08:02:32.334Z,3.10
2017-06-01T08:05:01.095Z,3.06
2017-06-01T08:07:29.854Z,3.48
2017-06-01T08:09:58.622Z,3.34
2017-06-01T08:12:27.387Z,2.74
2017-06-01T08:14:56.147Z,2.92
2017-06-01T08:17:24.918Z,2.50
2017-06-01T08:19:53.682Z,2.90
2017-06-01T08:22:22.446Z,2.68
2017-06-01T08:24:51.222Z,2.80
2017-06-01T08:27:19.978Z,2.76
2017-06-01T08:29:48.742Z,2.78
2017-06-01T08:32:17.519Z,3.30
2017-06-01T08:34:46.286Z,2.80
2017-06-01T08:37:15.045Z,2.72
2017-06-01T08:39:43.838Z,2.74
2017-06-01T08:42:12.646Z,2.78
2017-06-01T08:44:41.435Z,2.82
2017-06-01T08:47:10.182Z,2.42
2017-06-01T08:49:39.014Z,2.78
2017-06-01T08:52:07.746Z,3.30
2017-06-01T08:54:36.522Z,2.22
2017-06-01T08:57:05.282Z,2.70
2017-06-01T08:59:34.048Z,2.32
2017-06-01T09:02:02.821Z,2.98
2017-06-01T09:04:31.585Z,2.22
2017-06-01T09:07:00.350Z,2.20
2017-06-01T09:09:29.142Z,2.70
2017-06-01T09:11:57.913Z,2.12
2017-06-01T09:14:26.670Z,2.72
2017-06-01T09:16:55.478Z,2.60
2017-06-01T09:19:24.257Z,3.02
2017-06-01T09:21:53.005Z,2.42
2017-06-01T09:24:21.773Z,2.18
2017-06-01T09:26:50.538Z,2.66
2017-06-01T09:29:19.306Z,2.58
2017-06-01T09:31:48.113Z,2.50
2017-06-01T09:34:16.878Z,2.42
2017-06-01T09:36:45.649Z,2.60
2017-06-01T09:39:13.661Z,2.26
2017-06-01T09:41:42.425Z,2.52
2017-06-01T09:44:11.185Z,2.62
2017-06-01T09:46:40.004Z,2.56
2017-06-01T09:49:08.769Z,2.58
2017-06-01T09:51:37.541Z,2.08
2017-06-01T09:54:06.325Z,2.56
2017-06-01T09:56:35.089Z,2.48
2017-06-01T09:59:03.853Z,2.34
2017-06-01T10:01:32.665Z,1.92
2017-06-01T10:04:01.428Z,2.72
2017-06-01T10:06:30.197Z,2.68
2017-06-01T10:08:58.977Z,2.40
2017-06-01T10:11:27.773Z,2.20
2017-06-01T10:13:56.512Z,2.32
2017-06-01T10:16:25.301Z,2.50
2017-06-01T10:18:53.310Z,2.48
2017-06-01T10:21:22.076Z,2.42
2017-06-01T10:23:51.796Z,2.94
2017-06-01T10:26:20.565Z,2.66
2017-06-01T10:28:49.340Z,2.10
2017-06-01T10:31:18.124Z,2.50
2017-06-01T10:33:46.892Z,2.46
2017-06-01T10:36:15.661Z,2.52
2017-06-01T10:38:44.456Z,2.68
2017-06-01T10:41:13.228Z,2.22
2017-06-01T10:43:41.992Z,2.30
2017-06-01T10:46:10.788Z,2.36
2017-06-01T10:48:39.556Z,2.44
2017-06-01T10:51:08.348Z,2.44
2017-06-01T10:53:37.145Z,2.30
2017-06-01T10:56:05.912Z,2.12
2017-06-01T10:58:34.676Z,2.18
2017-06-01T11:01:03.472Z,2.32
2017-06-01T11:03:32.316Z,2.90
2017-06-01T11:06:01.060Z,2.58
2017-06-01T11:08:29.860Z,2.24
2017-06-01T11:10:58.628Z,2.74
2017-06-01T11:13:27.464Z,2.28
2017-06-01T11:15:56.231Z,2.56
2017-06-01T11:18:25.004Z,2.28
2017-06-01T11:20:53.748Z,2.06
2017-06-01T11:23:22.528Z,2.40
2017-06-01T11:25:51.295Z,2.48
2017-06-01T11:28:20.060Z,2.70
2017-06-01T11:30:48.852Z,2.38
2017-06-01T11:33:17.619Z,1.96
2017-06-01T11:35:46.385Z,2.48
2017-06-01T11:38:15.184Z,2.66
2017-06-01T11:40:43.952Z,2.60
2017-06-01T11:43:12.727Z,2.16
2017-06-01T11:45:41.503Z,2.12
2017-06-01T11:48:10.272Z,2.44
2017-06-01T11:50:39.035Z,2.48
2017-06-01T11:53:07.827Z,2.56
2017-06-01T11:55:36.591Z,2.28
2017-06-01T11:58:05.355Z,2.46
2017-06-01T12:00:34.144Z,2.42
2017-06-01T12:03:03.012Z,2.30
2017-06-01T12:05:31.759Z,2.90
2017-06-01T12:08:00.551Z,2.34
2017-06-01T12:10:29.316Z,2.52
2017-06-01T12:12:58.087Z,2.18
2017-06-01T12:15:26.868Z,2.28
2017-06-01T12:17:55.635Z,2.04
2017-06-01T12:20:24.404Z,2.12
2017-06-01T12:22:53.187Z,2.16
2017-06-01T12:25:21.947Z,2.00
2017-06-01T12:27:50.715Z,2.76
2017-06-01T12:30:19.515Z,2.74
2017-06-01T12:32:48.279Z,2.10
2017-06-01T12:35:17.063Z,2.20
2017-06-01T12:37:45.856Z,2.56
2017-06-01T12:40:14.620Z,2.78
2017-06-01T12:42:43.404Z,2.14
2017-06-01T12:45:12.199Z,2.28
2017-06-01T12:47:40.964Z,2.44
2017-06-01T12:50:09.723Z,2.28
2017-06-01T12:52:38.512Z,2.28
2017-06-01T12:55:07.271Z,2.34
2017-06-01T12:57:36.034Z,2.06
2017-06-01T13:00:09.527Z,2.12
2017-06-01T13:02:38.299Z,2.40
2017-06-01T13:05:07.067Z,2.20
2017-06-01T13:07:35.846Z,2.26
2017-06-01T13:10:04.611Z,2.22
2017-06-01T13:12:33.379Z,1.88
2017-06-01T13:15:02.379Z,2.30
2017-06-01T13:17:31.146Z,2.10
2017-06-01T13:19:59.910Z,2.36
2017-06-01T13:22:28.723Z,2.10
2017-06-01T13:24:57.438Z,2.14
2017-06-01T13:27:26.206Z,2.30
2017-06-01T13:29:54.990Z,2.28
2017-06-01T13:32:23.755Z,2.10
2017-06-01T13:34:52.527Z,2.04
2017-06-01T13:37:21.314Z,2.30
2017-06-01T13:39:50.079Z,2.46
2017-06-01T13:42:18.842Z,2.16
2017-06-01T13:44:47.634Z,2.70
2017-06-01T13:47:16.407Z,2.06
2017-06-01T13:49:45.222Z,1.98
2017-06-01T13:52:13.939Z,2.06
2017-06-01T13:54:42.706Z,2.30
2017-06-01T13:57:11.471Z,2.66
2017-06-01T13:59:40.242Z,1.98
2017-06-01T14:02:09.122Z,2.48
2017-06-01T14:04:37.850Z,1.94
2017-06-01T14:07:06.619Z,2.40
2017-06-01T14:09:36.366Z,2.02
2017-06-01T14:12:05.129Z,1.94
2017-06-01T14:14:34.042Z,2.30
2017-06-01T14:17:02.814Z,1.80
2017-06-01T14:19:31.574Z,1.90
2017-06-01T14:22:00.346Z,2.52
2017-06-01T14:24:29.118Z,2.02
2017-06-01T14:26:57.878Z,2.12
2017-06-01T14:29:26.713Z,2.16
2017-06-01T14:31:55.414Z,1.90
2017-06-01T14:34:24.178Z,2.70
2017-06-01T14:36:52.954Z,2.18
2017-06-01T14:39:21.722Z,2.10
2017-06-01T14:41:50.482Z,1.94
2017-06-01T14:44:19.278Z,1.64
2017-06-01T14:46:48.050Z,2.88
2017-06-01T14:49:16.834Z,2.02
2017-06-01T14:51:45.606Z,2.04
2017-06-01T14:54:14.365Z,2.30
2017-06-01T14:56:43.126Z,2.20
2017-06-01T14:59:11.898Z,2.20
2017-06-01T15:01:40.658Z,2.52
2017-06-01T15:04:09.431Z,2.26
2017-06-01T15:06:38.241Z,2.02
2017-06-01T15:09:07.009Z,2.16
2017-06-01T15:11:35.778Z,2.14
2017-06-01T15:14:04.569Z,2.08
2017-06-01T15:16:33.337Z,1.80
2017-06-01T15:19:02.113Z,2.08
2017-06-01T15:21:31.041Z,2.52
2017-06-01T15:23:59.765Z,2.52
2017-06-01T15:26:28.540Z,2.30
2017-06-01T15:28:57.405Z,1.90
2017-06-01T15:31:26.168Z,2.10
2017-06-01T15:33:54.945Z,2.10
2017-06-01T15:36:23.870Z,2.36
2017-06-01T15:38:52.590Z,2.40
2017-06-01T15:41:21.360Z,2.10
2017-06-01T15:43:50.149Z,1.96
2017-06-01T15:46:18.920Z,2.34
2017-06-01T15:48:47.693Z,1.84
2017-06-01T15:51:16.477Z,2.62
2017-06-01T15:53:45.237Z,1.90
2017-06-01T15:56:13.997Z,2.00
2017-06-01T15:58:42.785Z,2.22
2017-06-01T16:17:12.380Z,2.90
2017-06-01T16:19:41.185Z,2.32
2017-06-01T16:22:09.960Z,2.88
2017-06-01T16:24:38.765Z,2.12
2017-06-01T16:27:07.512Z,2.26
2017-06-01T16:29:36.284Z,2.42
2017-06-01T16:32:05.061Z,2.42
2017-06-01T16:34:33.820Z,2.36
2017-06-01T16:37:02.588Z,2.06
2017-06-01T16:39:31.368Z,2.10
2017-06-01T16:42:00.145Z,2.12
2017-06-01T16:44:28.904Z,2.10
2017-06-01T16:46:57.704Z,2.10
2017-06-01T16:49:26.476Z,2.30
2017-06-01T16:51:55.505Z,1.84
2017-06-01T16:54:24.272Z,2.46
2017-06-01T16:56:53.040Z,2.28
2017-06-01T17:11:58.359Z,2.24
2017-06-01T17:14:27.131Z,2.28
2017-06-01T17:16:55.907Z,2.14
2017-06-01T17:19:24.691Z,2.24
2017-06-01T17:21:53.461Z,2.46
2017-06-01T17:24:22.232Z,2.00
2017-06-01T17:26:51.018Z,2.24
2017-06-01T17:29:19.789Z,2.62
2017-06-01T17:31:48.568Z,2.32
2017-06-01T17:34:17.375Z,2.46
2017-06-01T17:36:46.112Z,2.28
2017-06-01T17:39:14.879Z,2.30
2017-06-01T17:41:43.652Z,2.98
2017-06-01T17:44:12.415Z,2.22
2017-06-01T17:46:41.188Z,2.56
2017-06-01T17:49:09.999Z,2.20
2017-06-01T17:51:38.731Z,2.56
2017-06-01T17:54:07.495Z,2.28
2017-06-01T17:56:36.279Z,2.10
2017-06-01T17:59:05.056Z,2.00
2017-06-01T18:01:33.815Z,2.32
2017-06-01T18:04:02.603Z,2.00
2017-06-01T18:06:31.379Z,2.26
2017-06-01T18:09:00.151Z,2.20
2017-06-01T18:11:28.948Z,2.12
2017-06-01T18:13:57.791Z,1.86
2017-06-01T18:16:26.559Z,2.12
2017-06-01T18:18:55.339Z,2.70
2017-06-01T18:21:24.103Z,2.30
2017-06-01T18:23:52.911Z,2.24
2017-06-01T18:26:21.703Z,2.24
2017-06-01T18:28:50.487Z,2.18
2017-06-01T18:31:19.251Z,2.20
2017-06-01T18:33:48.051Z,2.60
2017-06-01T18:36:16.823Z,2.28
2017-06-01T18:38:45.604Z,2.46
2017-06-01T18:41:14.391Z,2.70
2017-06-01T18:43:43.148Z,2.08
2017-06-01T18:46:11.911Z,1.78
2017-06-01T18:48:40.698Z,2.24
2017-06-01T18:51:09.466Z,2.26
2017-06-01T18:53:38.238Z,2.40
2017-06-01T18:56:07.038Z,2.64
2017-06-01T18:58:35.847Z,2.20
2017-06-01T19:01:04.646Z,2.58
2017-06-01T19:03:33.439Z,2.12
2017-06-01T19:06:02.211Z,2.40
2017-06-01T19:08:30.978Z,2.04
2017-06-01T19:10:59.751Z,2.66
2017-06-01T19:13:29.382Z,1.90
2017-06-01T19:15:58.179Z,2.36
2017-06-01T19:18:26.974Z,2.50
2017-06-01T19:20:55.735Z,2.26
2017-06-01T19:23:24.511Z,2.56
2017-06-01T19:25:53.279Z,2.42
2017-06-01T19:28:22.106Z,1.84
2017-06-01T19:30:50.854Z,2.06
2017-06-01T19:33:19.634Z,2.30
2017-06-01T19:35:48.394Z,2.04
2017-06-01T19:38:17.990Z,3.14
2017-06-01T19:40:46.783Z,2.62
2017-06-01T19:43:15.558Z,2.34
2017-06-01T19:45:45.218Z,2.00
2017-06-01T19:48:14.010Z,2.70
2017-06-01T20:12:53.001Z,4.10
2017-06-01T20:15:22.774Z,3.56
2017-06-01T20:17:51.550Z,3.02
2017-06-01T20:20:20.329Z,3.58
2017-06-01T20:22:49.106Z,3.06
2017-06-01T20:25:17.871Z,3.48
2017-06-01T20:27:46.669Z,2.58
2017-06-01T20:30:15.434Z,2.84
2017-06-01T20:32:46.125Z,2.78
2017-06-01T20:35:14.941Z,3.34
2017-06-01T20:37:43.710Z,2.80
2017-06-01T20:40:12.517Z,3.00
2017-06-01T20:42:41.289Z,2.82
2017-06-01T20:45:10.066Z,2.52
2017-06-01T20:47:38.853Z,3.10
2017-06-01T20:50:07.637Z,3.10
2017-06-01T20:52:36.429Z,2.72
2017-06-01T20:55:05.181Z,2.80
2017-06-01T20:57:33.957Z,2.98
2017-06-01T21:00:02.770Z,3.00
2017-06-01T21:02:31.529Z,2.86
2017-06-01T21:05:00.305Z,2.34
2017-06-01T21:07:32.505Z,2.48
2017-06-01T21:10:01.313Z,2.20
2017-06-01T21:12:30.089Z,2.82
2017-06-01T21:14:58.869Z,3.56
2017-06-01T21:17:30.417Z,4.74
2017-06-01T21:19:59.201Z,4.02
2017-06-01T21:22:27.989Z,4.10
2017-06-01T21:24:56.801Z,3.46
2017-06-01T21:27:25.601Z,3.84
2017-06-01T21:29:54.373Z,3.86
2017-06-01T21:32:23.177Z,3.00
2017-06-01T21:34:51.977Z,2.64
2017-06-01T21:37:20.765Z,3.02
2017-06-01T21:39:50.469Z,3.18
2017-06-01T21:42:21.165Z,3.90
2017-06-01T21:44:49.933Z,3.80
2017-06-01T21:47:18.705Z,4.24
2017-06-01T21:49:47.525Z,4.10
2017-06-01T21:52:16.313Z,4.72
2017-06-01T21:54:45.077Z,4.12
2017-06-01T21:57:13.864Z,4.26
2017-06-01T21:59:42.641Z,3.54
2017-06-01T22:02:11.404Z,4.00
2017-06-01T22:04:40.185Z,3.66
2017-06-01T22:07:13.892Z,3.22
2017-06-01T22:09:42.680Z,4.94
2017-06-01T22:12:13.356Z,4.68
2017-06-01T22:14:42.146Z,4.40
2017-06-01T22:17:10.916Z,4.66
2017-06-01T22:19:42.744Z,4.08
2017-06-01T22:22:11.516Z,4.44
2017-06-01T22:24:40.296Z,4.88
2017-06-01T22:27:09.100Z,4.94
2017-06-01T22:29:37.872Z,5.78
2017-06-01T22:32:06.648Z,4.78
2017-06-01T22:34:35.449Z,4.44
2017-06-01T22:37:04.228Z,4.50
2017-06-01T22:39:33.009Z,4.94
2017-06-01T22:42:01.812Z,4.22
2017-06-01T22:44:30.597Z,4.24
2017-06-01T22:46:59.364Z,4.12
2017-06-01T22:49:29.076Z,4.82
2017-06-01T22:51:58.743Z,5.38
2017-06-01T22:54:27.516Z,5.00
2017-06-01T22:56:56.304Z,4.48
2017-06-01T22:59:25.079Z,5.14
2017-06-01T23:01:53.859Z,5.12
2017-06-01T23:04:23.615Z,5.30
2017-06-01T23:06:55.840Z,5.52
2017-06-01T23:09:25.543Z,5.92
2017-06-01T23:11:54.327Z,5.10
2017-06-01T23:14:23.099Z,4.76
2017-06-01T23:16:54.943Z,5.56
2017-06-01T23:19:23.711Z,5.32
2017-06-01T23:21:53.523Z,4.76
2017-06-01T23:24:22.299Z,4.90
2017-06-01T23:26:53.055Z,4.84
2017-06-01T23:29:22.780Z,5.04
2017-06-01T23:31:53.259Z,6.16
2017-06-01T23:34:25.455Z,4.86
2017-06-01T23:36:55.159Z,4.82
2017-06-01T23:39:25.919Z,5.06
2017-06-01T23:42:00.603Z,5.22
2017-06-01T23:44:30.359Z,5.32
2017-06-01T23:46:59.131Z,4.70
2017-06-01T23:49:27.907Z,5.24
2017-06-01T23:52:03.495Z,5.82
2017-06-01T23:54:32.275Z,6.10
2017-06-01T23:57:01.055Z,5.22
2017-06-01T23:59:33.399Z,5.52
